Rook, Pennsylvania
Current Conditions -  °F | °C
As of 3:53 PM on Thursday 23 Oct 2014 (Local Time) from KAGC Reporting Station
Clear Clear  
Wind Chill: 60°   Ceiling: Unl
Heat Index: 60°   Visibility: 10mi
Dew Point: 40°   Wind: 10mph
Humidity: 47%   Direction: 320°NW
Pressure: 30.04"   Gusts: 20mph
Location:  40.4193°N, 80.0502°W
Report Text: KAGC 231953Z 32009G17KT 10SM CLR 16/04 A3004 RMK AO2 SLP179 T01560044
Loading
Personal Weather Stations






























Interactive Weather Map New forecast layout! Learn more

10-Day Weather Forecast

Advertisements
Track Severe Weather on mobile